This is the latest recevied weather packets stored in our database for station/object NM5PB-13. If no packets are shown the sender has not sent any weather packets the latest 1 day(s).
| Time | Temp. | Humidity | Pressure | Rain* | Wind** | Luminosity | Snow |
|---|---|---|---|---|---|---|---|
| 1836274532 | 16.67° C | 97% | 985 hPa | 0 mm | 0 m/s | - | - |
| 1778056898 | 4.44° C | 61% | 1013 hPa | 0 mm | 0 m/s | - | - |
| 1778055985 | 4.44° C | 61% | 1013 hPa | 0 mm | 0 m/s | - | - |
| 1778055068 | 4.44° C | 62% | 1013 hPa | 0 mm | 0 m/s | - | - |
| 1778054163 | 4.44° C | 63% | 1013 hPa | 0 mm | 0 m/s | - | - |
| 1778053255 | 3.33° C | 70% | 1013 hPa | 0 mm | 0 m/s | - | - |
| 1778052343 | 2.78° C | 77% | 1013 hPa | 0 mm | 0 m/s | - | - |
| 1778051439 | 2.78° C | 77% | 1013 hPa | 0 mm | 0 m/s | - | - |
| 1778050533 | 2.78° C | 77% | 1013 hPa | 0 mm | 0 m/s | - | - |
| 1778049625 | 3.33° C | 77% | 1013 hPa | 0 mm | 0 m/s | - | - |
| 1778048722 | 2.78° C | 78% | 1013 hPa | 0 mm | 0 m/s | - | - |
| 1778047819 | 3.33° C | 77% | 1013 hPa | 0 mm | 0 m/s | - | - |
| 1778046916 | 3.89° C | 74% | 1013 hPa | 0 mm | 0 m/s | - | - |
| 1778046011 | 4.44° C | 72% | 1013 hPa | 0 mm | 0 m/s | - | - |
| 1778045108 | 5.56° C | 69% | 1013 hPa | 0 mm | 0 m/s | - | - |
| 1778044205 | 6.11° C | 62% | 1012 hPa | 0 mm | 0 m/s | - | - |
| 1778043303 | 7.22° C | 57% | 1012 hPa | 0 mm | 0 m/s | - | - |
| 1778042399 | 7.78° C | 54% | 1012 hPa | 0 mm | 0 m/s | - | - |
| 1778041495 | 8.89° C | 51% | 1012 hPa | 0 mm | 0 m/s | - | - |
| 1778040592 | 8.89° C | 50% | 1012 hPa | 0 mm | 0 m/s | - | - |
| 1778039686 | 8.89° C | 51% | 1012 hPa | 0 mm | 0 m/s | - | - |
| 1778038783 | 8.89° C | 50% | 1012 hPa | 0 mm | 0 m/s | - | - |
| 1778037879 | 9.44° C | 50% | 1012 hPa | 0 mm | 0 m/s | - | - |
| 1778036975 | 9.44° C | 50% | 1012 hPa | 0 mm | 0 m/s | - | - |
| 1778036071 | 9.44° C | 49% | 1011 hPa | 0 mm | 0.45 m/s, 207° | - | - |
* Rain latest hour (hover to see other rain measurements)
** Current wind speed in m/s (hover to see current wind gust speed)